53.1°F
Current conditions from King Hill
Updated every 5 minutes
 
  Saturday October 25, 2014

Station Historical Data
Daily Summary for May 8, 2012 Units:  Both    English   Metric
« Previous Day
Next Day »
Daily Weekly Monthly Yearly Custom
  High: Low: Average:
Temperature: 60.1 °F /  15.6 °C 49.5 °F /  9.7 °C 53.4 °F /  11.9 °C
Dew Point: 53.2 °F /  11.8 °C 39.0 °F /  3.9 °C 49.2 °F /  9.6 °C
Humidity: 96% 49% 86%
Wind Speed: 13.0mph /  20.9km/h - 4.7mph /  7.6km/h
Wind Gust: 29.0mph /  46.7km/h - -
Wind- - SSW
Pressure: 29.91 in /  1012.8 hPa 29.72 in /  1006.3 hPa -
Precipitation: 1.40 in /  35.6 mm    
Historical Graphs
 
 
Tabular Data for May 8, 2012
Time Temperature Dew Point Pressure Wind Wind Speed Wind Gust Humidity Daily Rainfall
00:00 58.0 °F /  14.4 °C 39.0 °F /  3.9 °C 29.91in /  1012.8hPa SSW 3.0mph /  4.8km/h 9.0mph /  14.5km/h 49% 0.00in /  0mm
00:10 58.8 °F /  14.9 °C 40.2 °F /  4.6 °C 29.90in /  1012.4hPa SSW 1.0mph /  1.6km/h 8.0mph /  12.9km/h 50% 0.00in /  0mm
00:15 58.9 °F /  14.9 °C 40.8 °F /  4.9 °C 29.90in /  1012.4hPa South 1.0mph /  1.6km/h 8.0mph /  12.9km/h 51% 0.00in /  0mm
00:20 59.0 °F /  15 °C 41.4 °F /  5.2 °C 29.90in /  1012.4hPa SSW 2.0mph /  3.2km/h 8.0mph /  12.9km/h 52% 0.00in /  0mm
00:25 58.9 °F /  14.9 °C 43.2 °F /  6.2 °C 29.90in /  1012.4hPa SW 3.0mph /  4.8km/h 8.0mph /  12.9km/h 56% 0.00in /  0mm
00:30 59.0 °F /  15 °C 44.3 °F /  6.8 °C 29.90in /  1012.4hPa SSW 2.0mph /  3.2km/h 8.0mph /  12.9km/h 58% 0.00in /  0mm
00:35 59.3 °F /  15.2 °C 45.9 °F /  7.7 °C 29.90in /  1012.4hPa SSW 6.0mph /  9.7km/h 14.0mph /  22.5km/h 61% 0.00in /  0mm
00:40 59.7 °F /  15.4 °C 46.7 °F /  8.2 °C 29.90in /  1012.4hPa SSW 7.0mph /  11.3km/h 17.0mph /  27.4km/h 62% 0.00in /  0mm
00:45 60.0 °F /  15.6 °C 47.0 °F /  8.3 °C 29.90in /  1012.4hPa SSW 4.0mph /  6.4km/h 17.0mph /  27.4km/h 62% 0.00in /  0mm
00:50 60.1 °F /  15.6 °C 47.0 °F /  8.3 °C 29.90in /  1012.4hPa SW 5.0mph /  8km/h 13.0mph /  20.9km/h 62% 0.00in /  0mm
00:55 60.0 °F /  15.6 °C 47.0 °F /  8.3 °C 29.90in /  1012.4hPa SSW 4.0mph /  6.4km/h 17.0mph /  27.4km/h 62% 0.00in /  0mm
01:00 60.1 °F /  15.6 °C 47.0 °F /  8.3 °C 29.90in /  1012.4hPa SSW 6.0mph /  9.7km/h 17.0mph /  27.4km/h 62% 0.00in /  0mm
01:05 60.0 °F /  15.6 °C 47.0 °F /  8.3 °C 29.90in /  1012.4hPa SW 3.0mph /  4.8km/h 13.0mph /  20.9km/h 62% 0.00in /  0mm
01:10 60.1 °F /  15.6 °C 47.0 °F /  8.3 °C 29.90in /  1012.4hPa SW 7.0mph /  11.3km/h 14.0mph /  22.5km/h 62% 0.00in /  0mm
01:15 60.1 °F /  15.6 °C 47.0 °F /  8.3 °C 29.90in /  1012.4hPa SSW 3.0mph /  4.8km/h 14.0mph /  22.5km/h 62% 0.00in /  0mm
01:20 60.0 °F /  15.6 °C 47.0 °F /  8.3 °C 29.90in /  1012.4hPa South 4.0mph /  6.4km/h 12.0mph /  19.3km/h 62% 0.00in /  0mm
01:25 59.9 °F /  15.5 °C 46.9 °F /  8.3 °C 29.89in /  1012.1hPa SSW 5.0mph /  8km/h 12.0mph /  19.3km/h 62% 0.00in /  0mm
01:30 59.8 °F /  15.4 °C 47.2 °F /  8.4 °C 29.89in /  1012.1hPa SSW 7.0mph /  11.3km/h 14.0mph /  22.5km/h 63% 0.00in /  0mm
01:35 59.8 °F /  15.4 °C 47.6 °F /  8.7 °C 29.89in /  1012.1hPa SW 5.0mph /  8km/h 14.0mph /  22.5km/h 64% 0.00in /  0mm
01:40 59.8 °F /  15.4 °C 47.6 °F /  8.7 °C 29.89in /  1012.1hPa SSW 4.0mph /  6.4km/h 15.0mph /  24.1km/h 64% 0.00in /  0mm
01:45 59.7 °F /  15.4 °C 47.9 °F /  8.8 °C 29.89in /  1012.1hPa SSW 6.0mph /  9.7km/h 19.0mph /  30.6km/h 65% 0.00in /  0mm
01:50 59.7 °F /  15.4 °C 48.3 °F /  9.1 °C 29.89in /  1012.1hPa SSW 8.0mph /  12.9km/h 22.0mph /  35.4km/h 66% 0.00in /  0mm
01:55 59.7 °F /  15.4 °C 48.3 °F /  9.1 °C 29.89in /  1012.1hPa SSW 7.0mph /  11.3km/h 22.0mph /  35.4km/h 66% 0.00in /  0mm
02:00 59.6 °F /  15.3 °C 48.2 °F /  9 °C 29.88in /  1011.7hPa South 6.0mph /  9.7km/h 18.0mph /  29km/h 66% 0.00in /  0mm
02:05 59.5 °F /  15.3 °C 48.5 °F /  9.2 °C 29.88in /  1011.7hPa SW 6.0mph /  9.7km/h 16.0mph /  25.7km/h 67% 0.00in /  0mm
02:10 59.4 °F /  15.2 °C 48.4 °F /  9.1 °C 29.88in /  1011.7hPa SW 8.0mph /  12.9km/h 19.0mph /  30.6km/h 67% 0.00in /  0mm
02:15 59.3 °F /  15.2 °C 48.7 °F /  9.3 °C 29.88in /  1011.7hPa SW 9.0mph /  14.5km/h 19.0mph /  30.6km/h 68% 0.00in /  0mm
02:20 59.0 °F /  15 °C 48.5 °F /  9.2 °C 29.88in /  1011.7hPa SSW 6.0mph /  9.7km/h 19.0mph /  30.6km/h 68% 0.00in /  0mm
02:25 59.0 °F /  15 °C 48.5 °F /  9.2 °C 29.88in /  1011.7hPa SSW 5.0mph /  8km/h 19.0mph /  30.6km/h 68% 0.00in /  0mm
02:35 59.0 °F /  15 °C 48.9 °F /  9.4 °C 29.87in /  1011.4hPa SSW 5.0mph /  8km/h 22.0mph /  35.4km/h 69% 0.00in /  0mm
02:45 59.0 °F /  15 °C 48.9 °F /  9.4 °C 29.87in /  1011.4hPa SSW 4.0mph /  6.4km/h 18.0mph /  29km/h 69% 0.00in /  0mm
02:50 58.7 °F /  14.8 °C 49.0 °F /  9.4 °C 29.87in /  1011.4hPa South 2.0mph /  3.2km/h 13.0mph /  20.9km/h 70% 0.00in /  0mm
02:55 58.4 °F /  14.7 °C 49.0 °F /  9.4 °C 29.86in /  1011.1hPa South 3.0mph /  4.8km/h 13.0mph /  20.9km/h 71% 0.00in /  0mm
03:00 58.2 °F /  14.6 °C 49.2 °F /  9.6 °C 29.86in /  1011.1hPa SSW 2.0mph /  3.2km/h 13.0mph /  20.9km/h 72% 0.00in /  0mm
03:05 58.1 °F /  14.5 °C 49.1 °F /  9.5 °C 29.86in /  1011.1hPa SSW 3.0mph /  4.8km/h 14.0mph /  22.5km/h 72% 0.00in /  0mm
03:10 58.0 °F /  14.4 °C 49.0 °F /  9.4 °C 29.86in /  1011.1hPa SSW 2.0mph /  3.2km/h 14.0mph /  22.5km/h 72% 0.00in /  0mm
03:20 57.6 °F /  14.2 °C 49.0 °F /  9.4 °C 29.85in /  1010.7hPa SW 1.0mph /  1.6km/h 11.0mph /  17.7km/h 73% 0.00in /  0mm
03:25 57.5 °F /  14.2 °C 49.3 °F /  9.6 °C 29.85in /  1010.7hPa SSW 1.0mph /  1.6km/h 10.0mph /  16.1km/h 74% 0.00in /  0mm
03:30 57.3 °F /  14.1 °C 49.5 °F /  9.7 °C 29.85in /  1010.7hPa SSW 2.0mph /  3.2km/h 13.0mph /  20.9km/h 75% 0.00in /  0mm
03:40 56.9 °F /  13.8 °C 49.4 °F /  9.7 °C 29.85in /  1010.7hPa South 1.0mph /  1.6km/h 9.0mph /  14.5km/h 76% 0.00in /  0mm
03:45 56.6 °F /  13.7 °C 49.8 °F /  9.9 °C 29.85in /  1010.7hPa SSW 2.0mph /  3.2km/h 10.0mph /  16.1km/h 78% 0.00in /  0mm
03:50 56.4 °F /  13.6 °C 49.6 °F /  9.8 °C 29.85in /  1010.7hPa SSW 3.0mph /  4.8km/h 10.0mph /  16.1km/h 78% 0.00in /  0mm
03:55 56.1 °F /  13.4 °C 49.7 °F /  9.8 °C 29.84in /  1010.4hPa SSW 3.0mph /  4.8km/h 8.0mph /  12.9km/h 79% 0.00in /  0mm
04:00 55.9 °F /  13.3 °C 49.8 °F /  9.9 °C 29.84in /  1010.4hPa SW 2.0mph /  3.2km/h 11.0mph /  17.7km/h 80% 0.00in /  0mm
04:05 55.7 °F /  13.2 °C 50.0 °F /  10 °C 29.84in /  1010.4hPa SSW 3.0mph /  4.8km/h 11.0mph /  17.7km/h 81% 0.00in /  0mm
04:10 55.6 °F /  13.1 °C 49.9 °F /  9.9 °C 29.84in /  1010.4hPa SW 1.0mph /  1.6km/h 10.0mph /  16.1km/h 81% 0.00in /  0mm
04:15 55.4 °F /  13 °C 50.0 °F /  10 °C 29.83in /  1010hPa SW 3.0mph /  4.8km/h 10.0mph /  16.1km/h 82% 0.00in /  0mm
04:20 55.3 °F /  12.9 °C 49.9 °F /  9.9 °C 29.83in /  1010hPa SW 3.0mph /  4.8km/h 10.0mph /  16.1km/h 82% 0.00in /  0mm
04:25 55.1 °F /  12.8 °C 50.0 °F /  10 °C 29.83in /  1010hPa SW 2.0mph /  3.2km/h 10.0mph /  16.1km/h 83% 0.00in /  0mm
04:30 55.0 °F /  12.8 °C 50.3 °F /  10.2 °C 29.83in /  1010hPa SW 2.0mph /  3.2km/h 11.0mph /  17.7km/h 84% 0.00in /  0mm
04:35 54.9 °F /  12.7 °C 50.2 °F /  10.1 °C 29.84in /  1010.4hPa SW 4.0mph /  6.4km/h 14.0mph /  22.5km/h 84% 0.00in /  0mm
04:40 54.8 °F /  12.7 °C 50.1 °F /  10.1 °C 29.84in /  1010.4hPa SW 5.0mph /  8km/h 14.0mph /  22.5km/h 84% 0.01in /  0.3mm
04:45 54.7 °F /  12.6 °C 50.3 °F /  10.2 °C 29.84in /  1010.4hPa SW 6.0mph /  9.7km/h 15.0mph /  24.1km/h 85% 0.01in /  0.3mm
04:50 54.5 °F /  12.5 °C 50.1 °F /  10.1 °C 29.83in /  1010hPa SW 2.0mph /  3.2km/h 15.0mph /  24.1km/h 85% 0.01in /  0.3mm
05:00 54.2 °F /  12.3 °C 50.4 °F /  10.2 °C 29.84in /  1010.4hPa SSW 5.0mph /  8km/h 15.0mph /  24.1km/h 87% 0.02in /  0.5mm
05:05 54.1 °F /  12.3 °C 50.3 °F /  10.2 °C 29.83in /  1010hPa SW 6.0mph /  9.7km/h 15.0mph /  24.1km/h 87% 0.02in /  0.5mm
05:10 53.9 °F /  12.2 °C 50.1 °F /  10.1 °C 29.84in /  1010.4hPa SW 10.0mph /  16.1km/h 18.0mph /  29km/h 87% 0.02in /  0.5mm
05:15 53.9 °F /  12.2 °C 50.1 °F /  10.1 °C 29.84in /  1010.4hPa SSW 8.0mph /  12.9km/h 18.0mph /  29km/h 87% 0.02in /  0.5mm
05:20 53.8 °F /  12.1 °C 50.0 °F /  10 °C 29.83in /  1010hPa SSW 7.0mph /  11.3km/h 17.0mph /  27.4km/h 87% 0.03in /  0.8mm
05:25 53.7 °F /  12.1 °C 49.9 °F /  9.9 °C 29.83in /  1010hPa SSW 8.0mph /  12.9km/h 16.0mph /  25.7km/h 87% 0.03in /  0.8mm
05:35 53.6 °F /  12 °C 49.8 °F /  9.9 °C 29.83in /  1010hPa SSW 10.0mph /  16.1km/h 25.0mph /  40.2km/h 87% 0.03in /  0.8mm
05:45 53.4 °F /  11.9 °C 49.6 °F /  9.8 °C 29.83in /  1010hPa SW 5.0mph /  8km/h 17.0mph /  27.4km/h 87% 0.03in /  0.8mm
05:50 53.5 °F /  11.9 °C 49.4 °F /  9.7 °C 29.83in /  1010hPa SSW 8.0mph /  12.9km/h 18.0mph /  29km/h 86% 0.03in /  0.8mm
06:00 53.4 °F /  11.9 °C 49.3 °F /  9.6 °C 29.83in /  1010hPa SSW 3.0mph /  4.8km/h 14.0mph /  22.5km/h 86% 0.04in /  1mm
06:05 53.4 °F /  11.9 °C 49.3 °F /  9.6 °C 29.83in /  1010hPa SSW 6.0mph /  9.7km/h 19.0mph /  30.6km/h 86% 0.04in /  1mm
06:10 53.3 °F /  11.8 °C 48.9 °F /  9.4 °C 29.82in /  1009.7hPa SSW 8.0mph /  12.9km/h 27.0mph /  43.5km/h 85% 0.04in /  1mm
06:15 53.3 °F /  11.8 °C 48.9 °F /  9.4 °C 29.82in /  1009.7hPa South 11.0mph /  17.7km/h 27.0mph /  43.5km/h 85% 0.04in /  1mm
06:20 53.3 °F /  11.8 °C 48.6 °F /  9.2 °C 29.82in /  1009.7hPa SSW 6.0mph /  9.7km/h 25.0mph /  40.2km/h 84% 0.04in /  1mm
06:25 53.2 °F /  11.8 °C 48.5 °F /  9.2 °C 29.81in /  1009.4hPa SSW 7.0mph /  11.3km/h 20.0mph /  32.2km/h 84% 0.04in /  1mm
06:30 53.2 °F /  11.8 °C 48.2 °F /  9 °C 29.81in /  1009.4hPa SSW 8.0mph /  12.9km/h 22.0mph /  35.4km/h 83% 0.04in /  1mm
06:35 53.2 °F /  11.8 °C 48.2 °F /  9 °C 29.82in /  1009.7hPa SSW 9.0mph /  14.5km/h 22.0mph /  35.4km/h 83% 0.04in /  1mm
06:40 53.3 °F /  11.8 °C 48.0 °F /  8.9 °C 29.82in /  1009.7hPa SW 13.0mph /  20.9km/h 22.0mph /  35.4km/h 82% 0.04in /  1mm
06:55 53.2 °F /  11.8 °C 47.5 °F /  8.6 °C 29.82in /  1009.7hPa SSW 12.0mph /  19.3km/h 29.0mph /  46.7km/h 81% 0.04in /  1mm
07:00 52.9 °F /  11.6 °C 47.6 °F /  8.7 °C 29.82in /  1009.7hPa SSW 9.0mph /  14.5km/h 29.0mph /  46.7km/h 82% 0.04in /  1mm
07:05 52.7 °F /  11.5 °C 47.7 °F /  8.7 °C 29.82in /  1009.7hPa SSW 8.0mph /  12.9km/h 22.0mph /  35.4km/h 83% 0.04in /  1mm
07:10 52.5 °F /  11.4 °C 47.5 °F /  8.6 °C 29.82in /  1009.7hPa SSW 13.0mph /  20.9km/h 24.0mph /  38.6km/h 83% 0.04in /  1mm
07:15 52.4 °F /  11.3 °C 47.7 °F /  8.7 °C 29.82in /  1009.7hPa SSW 5.0mph /  8km/h 24.0mph /  38.6km/h 84% 0.04in /  1mm
07:25 52.0 °F /  11.1 °C 47.6 °F /  8.7 °C 29.82in /  1009.7hPa SSW 6.0mph /  9.7km/h 26.0mph /  41.8km/h 85% 0.05in /  1.3mm
07:30 51.8 °F /  11 °C 47.7 °F /  8.7 °C 29.81in /  1009.4hPa SSW 6.0mph /  9.7km/h 19.0mph /  30.6km/h 86% 0.06in /  1.5mm
07:35 51.7 °F /  10.9 °C 47.7 °F /  8.7 °C 29.82in /  1009.7hPa SW 5.0mph /  8km/h 21.0mph /  33.8km/h 86% 0.06in /  1.5mm
07:45 51.5 °F /  10.8 °C 47.8 °F /  8.8 °C 29.82in /  1009.7hPa SW 8.0mph /  12.9km/h 17.0mph /  27.4km/h 87% 0.07in /  1.8mm
07:50 51.4 °F /  10.8 °C 47.7 °F /  8.7 °C 29.81in /  1009.4hPa SSW 7.0mph /  11.3km/h 16.0mph /  25.7km/h 87% 0.07in /  1.8mm
08:00 51.3 °F /  10.7 °C 47.9 °F /  8.8 °C 29.81in /  1009.4hPa SSW 5.0mph /  8km/h 17.0mph /  27.4km/h 88% 0.08in /  2mm
08:05 51.2 °F /  10.7 °C 47.8 °F /  8.8 °C 29.81in /  1009.4hPa SSW 7.0mph /  11.3km/h 17.0mph /  27.4km/h 88% 0.08in /  2mm
08:15 51.0 °F /  10.6 °C 47.6 °F /  8.7 °C 29.81in /  1009.4hPa SW 6.0mph /  9.7km/h 16.0mph /  25.7km/h 88% 0.09in /  2.3mm
08:25 50.8 °F /  10.4 °C 47.7 °F /  8.7 °C 29.81in /  1009.4hPa SSW 4.0mph /  6.4km/h 19.0mph /  30.6km/h 89% 0.10in /  2.5mm
08:30 50.8 °F /  10.4 °C 47.7 °F /  8.7 °C 29.81in /  1009.4hPa SSW 10.0mph /  16.1km/h 19.0mph /  30.6km/h 89% 0.12in /  3mm
08:40 50.4 °F /  10.2 °C 47.3 °F /  8.5 °C 29.80in /  1009hPa SW 6.0mph /  9.7km/h 24.0mph /  38.6km/h 89% 0.13in /  3.3mm
08:45 50.3 °F /  10.2 °C 47.2 °F /  8.4 °C 29.80in /  1009hPa SSW 9.0mph /  14.5km/h 17.0mph /  27.4km/h 89% 0.14in /  3.6mm
08:55 50.1 °F /  10.1 °C 47.0 °F /  8.3 °C 29.80in /  1009hPa SSW 6.0mph /  9.7km/h 21.0mph /  33.8km/h 89% 0.15in /  3.8mm
09:05 49.9 °F /  9.9 °C 46.8 °F /  8.2 °C 29.79in /  1008.7hPa SSW 10.0mph /  16.1km/h 22.0mph /  35.4km/h 89% 0.16in /  4.1mm
09:10 49.7 °F /  9.8 °C 46.3 °F /  7.9 °C 29.79in /  1008.7hPa SSW 11.0mph /  17.7km/h 21.0mph /  33.8km/h 88% 0.17in /  4.3mm
09:15 49.6 °F /  9.8 °C 46.2 °F /  7.9 °C 29.79in /  1008.7hPa SSW 10.0mph /  16.1km/h 21.0mph /  33.8km/h 88% 0.19in /  4.8mm
09:20 49.6 °F /  9.8 °C 46.2 °F /  7.9 °C 29.79in /  1008.7hPa SSW 9.0mph /  14.5km/h 18.0mph /  29km/h 88% 0.19in /  4.8mm
09:25 49.5 °F /  9.7 °C 46.4 °F /  8 °C 29.79in /  1008.7hPa SSW 8.0mph /  12.9km/h 23.0mph /  37km/h 89% 0.21in /  5.3mm
09:35 49.5 °F /  9.7 °C 46.4 °F /  8 °C 29.78in /  1008.4hPa SSW 8.0mph /  12.9km/h 23.0mph /  37km/h 89% 0.24in /  6.1mm
09:40 49.6 °F /  9.8 °C 46.5 °F /  8.1 °C 29.79in /  1008.7hPa SSW 9.0mph /  14.5km/h 23.0mph /  37km/h 89% 0.24in /  6.1mm
09:50 49.7 °F /  9.8 °C 46.6 °F /  8.1 °C 29.78in /  1008.4hPa SSW 9.0mph /  14.5km/h 23.0mph /  37km/h 89% 0.26in /  6.6mm
09:55 49.6 °F /  9.8 °C 47.4 °F /  8.6 °C 29.78in /  1008.4hPa SSW 8.0mph /  12.9km/h 23.0mph /  37km/h 92% 0.26in /  6.6mm
10:00 49.6 °F /  9.8 °C 47.4 °F /  8.6 °C 29.78in /  1008.4hPa SSW 7.0mph /  11.3km/h 23.0mph /  37km/h 92% 0.27in /  6.9mm
10:05 49.7 °F /  9.8 °C 46.6 °F /  8.1 °C 29.78in /  1008.4hPa SSW 8.0mph /  12.9km/h 23.0mph /  37km/h 89% 0.28in /  7.1mm
10:10 49.6 °F /  9.8 °C 46.2 °F /  7.9 °C 29.78in /  1008.4hPa SSW 9.0mph /  14.5km/h 23.0mph /  37km/h 88% 0.28in /  7.1mm
10:15 49.5 °F /  9.7 °C 46.1 °F /  7.8 °C 29.79in /  1008.7hPa SSW 12.0mph /  19.3km/h 27.0mph /  43.5km/h 88% 0.29in /  7.4mm
10:25 49.6 °F /  9.8 °C 46.2 °F /  7.9 °C 29.78in /  1008.4hPa SSW 10.0mph /  16.1km/h 21.0mph /  33.8km/h 88% 0.31in /  7.9mm
10:30 49.7 °F /  9.8 °C 46.6 °F /  8.1 °C 29.78in /  1008.4hPa SSW 7.0mph /  11.3km/h 21.0mph /  33.8km/h 89% 0.31in /  7.9mm
10:35 49.7 °F /  9.8 °C 46.6 °F /  8.1 °C 29.78in /  1008.4hPa SW 8.0mph /  12.9km/h 18.0mph /  29km/h 89% 0.32in /  8.1mm
10:45 49.9 °F /  9.9 °C 46.8 °F /  8.2 °C 29.77in /  1008hPa SSW 9.0mph /  14.5km/h 25.0mph /  40.2km/h 89% 0.33in /  8.4mm
10:55 50.0 °F /  10 °C 46.9 °F /  8.3 °C 29.77in /  1008hPa SSW 7.0mph /  11.3km/h 19.0mph /  30.6km/h 89% 0.34in /  8.6mm
11:00 50.0 °F /  10 °C 46.9 °F /  8.3 °C 29.77in /  1008hPa SSW 10.0mph /  16.1km/h 20.0mph /  32.2km/h 89% 0.36in /  9.1mm
11:05 50.0 °F /  10 °C 46.9 °F /  8.3 °C 29.77in /  1008hPa SSW 10.0mph /  16.1km/h 20.0mph /  32.2km/h 89% 0.37in /  9.4mm
11:15 50.2 °F /  10.1 °C 47.1 °F /  8.4 °C 29.77in /  1008hPa SSW 7.0mph /  11.3km/h 19.0mph /  30.6km/h 89% 0.40in /  10.2mm
11:20 50.2 °F /  10.1 °C 47.1 °F /  8.4 °C 29.77in /  1008hPa SSW 7.0mph /  11.3km/h 19.0mph /  30.6km/h 89% 0.41in /  10.4mm
11:25 50.0 °F /  10 °C 46.9 °F /  8.3 °C 29.76in /  1007.7hPa SSW 11.0mph /  17.7km/h 23.0mph /  37km/h 89% 0.42in /  10.7mm
11:30 50.1 °F /  10.1 °C 47.0 °F /  8.3 °C 29.76in /  1007.7hPa SSW 8.0mph /  12.9km/h 23.0mph /  37km/h 89% 0.45in /  11.4mm
11:35 50.0 °F /  10 °C 46.9 °F /  8.3 °C 29.76in /  1007.7hPa SSW 10.0mph /  16.1km/h 19.0mph /  30.6km/h 89% 0.47in /  11.9mm
11:45 50.0 °F /  10 °C 46.9 °F /  8.3 °C 29.76in /  1007.7hPa SSW 6.0mph /  9.7km/h 19.0mph /  30.6km/h 89% 0.51in /  13mm
11:50 50.0 °F /  10 °C 47.2 °F /  8.4 °C 29.76in /  1007.7hPa SSW 9.0mph /  14.5km/h 18.0mph /  29km/h 90% 0.52in /  13.2mm
11:55 50.1 °F /  10.1 °C 47.3 °F /  8.5 °C 29.76in /  1007.7hPa SSW 8.0mph /  12.9km/h 19.0mph /  30.6km/h 90% 0.54in /  13.7mm
12:05 50.3 °F /  10.2 °C 47.5 °F /  8.6 °C 29.76in /  1007.7hPa SSW 8.0mph /  12.9km/h 19.0mph /  30.6km/h 90% 0.56in /  14.2mm
12:10 50.5 °F /  10.3 °C 48.0 °F /  8.9 °C 29.76in /  1007.7hPa SSW 6.0mph /  9.7km/h 19.0mph /  30.6km/h 91% 0.56in /  14.2mm
12:15 50.5 °F /  10.3 °C 48.0 °F /  8.9 °C 29.76in /  1007.7hPa SSW 4.0mph /  6.4km/h 17.0mph /  27.4km/h 91% 0.58in /  14.7mm
12:25 50.6 °F /  10.3 °C 48.1 °F /  8.9 °C 29.75in /  1007.3hPa SSW 6.0mph /  9.7km/h 18.0mph /  29km/h 91% 0.59in /  15mm
12:40 50.6 °F /  10.3 °C 48.1 °F /  8.9 °C 29.75in /  1007.3hPa SSW 8.0mph /  12.9km/h 18.0mph /  29km/h 91% 0.62in /  15.7mm
12:45 50.6 °F /  10.3 °C 48.1 °F /  8.9 °C 29.75in /  1007.3hPa SSW 9.0mph /  14.5km/h 22.0mph /  35.4km/h 91% 0.65in /  16.5mm
12:50 50.6 °F /  10.3 °C 48.1 °F /  8.9 °C 29.75in /  1007.3hPa SSW 7.0mph /  11.3km/h 22.0mph /  35.4km/h 91% 0.67in /  17mm
12:55 50.6 °F /  10.3 °C 48.1 °F /  8.9 °C 29.75in /  1007.3hPa SSW 10.0mph /  16.1km/h 22.0mph /  35.4km/h 91% 0.69in /  17.5mm
13:00 50.5 °F /  10.3 °C 48.0 °F /  8.9 °C 29.75in /  1007.3hPa SSW 8.0mph /  12.9km/h 22.0mph /  35.4km/h 91% 0.71in /  18mm
13:05 50.6 °F /  10.3 °C 48.1 °F /  8.9 °C 29.75in /  1007.3hPa SSW 6.0mph /  9.7km/h 17.0mph /  27.4km/h 91% 0.73in /  18.5mm
13:15 50.5 °F /  10.3 °C 48.0 °F /  8.9 °C 29.75in /  1007.3hPa SSW 7.0mph /  11.3km/h 19.0mph /  30.6km/h 91% 0.78in /  19.8mm
13:25 50.5 °F /  10.3 °C 48.0 °F /  8.9 °C 29.75in /  1007.3hPa SSW 5.0mph /  8km/h 17.0mph /  27.4km/h 91% 0.82in /  20.8mm
13:35 50.6 °F /  10.3 °C 48.1 °F /  8.9 °C 29.75in /  1007.3hPa SSW 5.0mph /  8km/h 12.0mph /  19.3km/h 91% 0.86in /  21.8mm
13:40 50.6 °F /  10.3 °C 48.4 °F /  9.1 °C 29.76in /  1007.7hPa SSW 4.0mph /  6.4km/h 11.0mph /  17.7km/h 92% 0.88in /  22.4mm
13:45 50.5 °F /  10.3 °C 48.3 °F /  9.1 °C 29.76in /  1007.7hPa SSW 5.0mph /  8km/h 15.0mph /  24.1km/h 92% 0.90in /  22.9mm
13:50 50.6 °F /  10.3 °C 48.4 °F /  9.1 °C 29.76in /  1007.7hPa SSW 1.0mph /  1.6km/h 15.0mph /  24.1km/h 92% 0.92in /  23.4mm
14:00 50.6 °F /  10.3 °C 48.4 °F /  9.1 °C 29.76in /  1007.7hPa South 3.0mph /  4.8km/h 11.0mph /  17.7km/h 92% 0.96in /  24.4mm
14:05 50.7 °F /  10.4 °C 48.5 °F /  9.2 °C 29.76in /  1007.7hPa South 3.0mph /  4.8km/h 12.0mph /  19.3km/h 92% 0.98in /  24.9mm
14:10 50.7 °F /  10.4 °C 48.5 °F /  9.2 °C 29.75in /  1007.3hPa SSW 5.0mph /  8km/h 12.0mph /  19.3km/h 92% 1.00in /  25.4mm
14:15 50.6 °F /  10.3 °C 48.4 °F /  9.1 °C 29.76in /  1007.7hPa SSW 5.0mph /  8km/h 14.0mph /  22.5km/h 92% 1.02in /  25.9mm
14:20 50.7 °F /  10.4 °C 48.5 °F /  9.2 °C 29.76in /  1007.7hPa SSW 2.0mph /  3.2km/h 14.0mph /  22.5km/h 92% 1.04in /  26.4mm
14:25 50.7 °F /  10.4 °C 48.8 °F /  9.3 °C 29.75in /  1007.3hPa SSW 2.0mph /  3.2km/h 13.0mph /  20.9km/h 93% 1.05in /  26.7mm
14:30 50.7 °F /  10.4 °C 48.8 °F /  9.3 °C 29.75in /  1007.3hPa South 4.0mph /  6.4km/h 13.0mph /  20.9km/h 93% 1.06in /  26.9mm
14:35 50.8 °F /  10.4 °C 48.9 °F /  9.4 °C 29.75in /  1007.3hPa SSW 2.0mph /  3.2km/h 12.0mph /  19.3km/h 93% 1.08in /  27.4mm
14:40 50.8 °F /  10.4 °C 48.9 °F /  9.4 °C 29.75in /  1007.3hPa South 3.0mph /  4.8km/h 14.0mph /  22.5km/h 93% 1.10in /  27.9mm
14:50 50.8 °F /  10.4 °C 48.9 °F /  9.4 °C 29.75in /  1007.3hPa Calm   9.0mph /  14.5km/h 93% 1.12in /  28.4mm
14:55 50.8 °F /  10.4 °C 48.9 °F /  9.4 °C 29.75in /  1007.3hPa SSW 3.0mph /  4.8km/h 9.0mph /  14.5km/h 93% 1.14in /  29mm
15:00 50.9 °F /  10.5 °C 48.9 °F /  9.4 °C 29.75in /  1007.3hPa SSW 3.0mph /  4.8km/h 9.0mph /  14.5km/h 93% 1.16in /  29.5mm
15:10 51.0 °F /  10.6 °C 49.0 °F /  9.4 °C 29.74in /  1007hPa SW 2.0mph /  3.2km/h 11.0mph /  17.7km/h 93% 1.17in /  29.7mm
15:20 51.0 °F /  10.6 °C 49.0 °F /  9.4 °C 29.74in /  1007hPa SSW 5.0mph /  8km/h 13.0mph /  20.9km/h 93% 1.20in /  30.5mm
15:25 51.0 °F /  10.6 °C 49.0 °F /  9.4 °C 29.74in /  1007hPa SSW 2.0mph /  3.2km/h 13.0mph /  20.9km/h 93% 1.20in /  30.5mm
15:30 51.2 °F /  10.7 °C 49.5 °F /  9.7 °C 29.74in /  1007hPa SSW 1.0mph /  1.6km/h 13.0mph /  20.9km/h 94% 1.22in /  31mm
15:35 51.3 °F /  10.7 °C 49.6 °F /  9.8 °C 29.74in /  1007hPa SSW 1.0mph /  1.6km/h 13.0mph /  20.9km/h 94% 1.23in /  31.2mm
15:40 51.3 °F /  10.7 °C 49.6 °F /  9.8 °C 29.74in /  1007hPa SSW 2.0mph /  3.2km/h 11.0mph /  17.7km/h 94% 1.24in /  31.5mm
15:50 51.3 °F /  10.7 °C 49.6 °F /  9.8 °C 29.74in /  1007hPa SW 3.0mph /  4.8km/h 15.0mph /  24.1km/h 94% 1.26in /  32mm
15:55 51.3 °F /  10.7 °C 49.6 °F /  9.8 °C 29.74in /  1007hPa South 1.0mph /  1.6km/h 10.0mph /  16.1km/h 94% 1.27in /  32.3mm
16:00 51.4 °F /  10.8 °C 49.7 °F /  9.8 °C 29.74in /  1007hPa SSW 3.0mph /  4.8km/h 11.0mph /  17.7km/h 94% 1.28in /  32.5mm
16:05 51.4 °F /  10.8 °C 49.7 °F /  9.8 °C 29.74in /  1007hPa SSW 2.0mph /  3.2km/h 11.0mph /  17.7km/h 94% 1.28in /  32.5mm
16:15 51.5 °F /  10.8 °C 49.8 °F /  9.9 °C 29.74in /  1007hPa SW 2.0mph /  3.2km/h 13.0mph /  20.9km/h 94% 1.30in /  33mm
16:25 51.5 °F /  10.8 °C 49.8 °F /  9.9 °C 29.74in /  1007hPa SSW 1.0mph /  1.6km/h 12.0mph /  19.3km/h 94% 1.32in /  33.5mm
16:30 51.6 °F /  10.9 °C 49.9 °F /  9.9 °C 29.74in /  1007hPa SSW 2.0mph /  3.2km/h 12.0mph /  19.3km/h 94% 1.32in /  33.5mm
16:40 51.6 °F /  10.9 °C 49.9 °F /  9.9 °C 29.74in /  1007hPa SW 1.0mph /  1.6km/h 10.0mph /  16.1km/h 94% 1.34in /  34mm
16:45 51.7 °F /  10.9 °C 50.0 °F /  10 °C 29.74in /  1007hPa SSW 1.0mph /  1.6km/h 10.0mph /  16.1km/h 94% 1.34in /  34mm
16:50 51.9 °F /  11.1 °C 50.5 °F /  10.3 °C 29.74in /  1007hPa SSW 2.0mph /  3.2km/h 10.0mph /  16.1km/h 95% 1.35in /  34.3mm
17:00 52.1 °F /  11.2 °C 50.7 °F /  10.4 °C 29.73in /  1006.7hPa SSW 1.0mph /  1.6km/h 9.0mph /  14.5km/h 95% 1.36in /  34.5mm
17:05 52.2 °F /  11.2 °C 50.8 °F /  10.4 °C 29.73in /  1006.7hPa South 3.0mph /  4.8km/h 10.0mph /  16.1km/h 95% 1.36in /  34.5mm
17:15 52.3 °F /  11.3 °C 50.9 °F /  10.5 °C 29.73in /  1006.7hPa SSW 1.0mph /  1.6km/h 12.0mph /  19.3km/h 95% 1.37in /  34.8mm
17:25 52.3 °F /  11.3 °C 50.9 °F /  10.5 °C 29.73in /  1006.7hPa SSW 2.0mph /  3.2km/h 10.0mph /  16.1km/h 95% 1.37in /  34.8mm
17:30 52.4 °F /  11.3 °C 51.0 °F /  10.6 °C 29.73in /  1006.7hPa SSW 1.0mph /  1.6km/h 10.0mph /  16.1km/h 95% 1.37in /  34.8mm
17:35 52.3 °F /  11.3 °C 50.9 °F /  10.5 °C 29.73in /  1006.7hPa SSW 3.0mph /  4.8km/h 12.0mph /  19.3km/h 95% 1.37in /  34.8mm
17:40 52.3 °F /  11.3 °C 50.9 °F /  10.5 °C 29.72in /  1006.3hPa SW 2.0mph /  3.2km/h 12.0mph /  19.3km/h 95% 1.37in /  34.8mm
17:50 52.4 °F /  11.3 °C 51.0 °F /  10.6 °C 29.72in /  1006.3hPa SSW 2.0mph /  3.2km/h 11.0mph /  17.7km/h 95% 1.37in /  34.8mm
17:55 52.4 °F /  11.3 °C 51.0 °F /  10.6 °C 29.72in /  1006.3hPa Calm   11.0mph /  17.7km/h 95% 1.38in /  35.1mm
18:00 52.4 °F /  11.3 °C 51.0 °F /  10.6 °C 29.73in /  1006.7hPa SSW 2.0mph /  3.2km/h 9.0mph /  14.5km/h 95% 1.38in /  35.1mm
18:05 52.5 °F /  11.4 °C 51.1 °F /  10.6 °C 29.73in /  1006.7hPa SSW 2.0mph /  3.2km/h 9.0mph /  14.5km/h 95% 1.38in /  35.1mm
18:10 52.5 °F /  11.4 °C 51.1 °F /  10.6 °C 29.73in /  1006.7hPa SSW 2.0mph /  3.2km/h 9.0mph /  14.5km/h 95% 1.38in /  35.1mm
18:15 52.5 °F /  11.4 °C 51.1 °F /  10.6 °C 29.72in /  1006.3hPa Calm   9.0mph /  14.5km/h 95% 1.38in /  35.1mm
18:20 52.5 °F /  11.4 °C 51.1 °F /  10.6 °C 29.72in /  1006.3hPa SSW 2.0mph /  3.2km/h 9.0mph /  14.5km/h 95% 1.38in /  35.1mm
18:25 52.6 °F /  11.4 °C 51.2 °F /  10.7 °C 29.72in /  1006.3hPa SSW 3.0mph /  4.8km/h 11.0mph /  17.7km/h 95% 1.38in /  35.1mm
18:30 52.6 °F /  11.4 °C 51.2 °F /  10.7 °C 29.72in /  1006.3hPa Calm   11.0mph /  17.7km/h 95% 1.38in /  35.1mm
18:40 52.7 °F /  11.5 °C 51.3 °F /  10.7 °C 29.72in /  1006.3hPa Calm   10.0mph /  16.1km/h 95% 1.39in /  35.3mm
18:45 52.7 °F /  11.5 °C 51.3 °F /  10.7 °C 29.72in /  1006.3hPa South 1.0mph /  1.6km/h 9.0mph /  14.5km/h 95% 1.40in /  35.6mm
18:55 52.8 °F /  11.6 °C 51.4 °F /  10.8 °C 29.72in /  1006.3hPa SSW 1.0mph /  1.6km/h 9.0mph /  14.5km/h 95% 1.40in /  35.6mm
19:05 52.8 °F /  11.6 °C 51.4 °F /  10.8 °C 29.72in /  1006.3hPa SSW 1.0mph /  1.6km/h 9.0mph /  14.5km/h 95% 1.40in /  35.6mm
19:10 52.8 °F /  11.6 °C 51.4 °F /  10.8 °C 29.72in /  1006.3hPa SW 2.0mph /  3.2km/h 10.0mph /  16.1km/h 95% 1.40in /  35.6mm
19:15 52.8 °F /  11.6 °C 51.4 °F /  10.8 °C 29.72in /  1006.3hPa Calm   10.0mph /  16.1km/h 95% 1.40in /  35.6mm
19:20 52.9 °F /  11.6 °C 51.5 °F /  10.8 °C 29.72in /  1006.3hPa SW 1.0mph /  1.6km/h 8.0mph /  12.9km/h 95% 1.40in /  35.6mm
19:25 52.9 °F /  11.6 °C 51.5 °F /  10.8 °C 29.73in /  1006.7hPa SSW 2.0mph /  3.2km/h 10.0mph /  16.1km/h 95% 1.40in /  35.6mm
19:35 52.9 °F /  11.6 °C 51.5 °F /  10.8 °C 29.73in /  1006.7hPa Calm   13.0mph /  20.9km/h 95% 1.40in /  35.6mm
19:45 53.0 °F /  11.7 °C 51.6 °F /  10.9 °C 29.72in /  1006.3hPa SSW 1.0mph /  1.6km/h 7.0mph /  11.3km/h 95% 1.40in /  35.6mm
19:55 53.0 °F /  11.7 °C 51.6 °F /  10.9 °C 29.72in /  1006.3hPa SSW 3.0mph /  4.8km/h 8.0mph /  12.9km/h 95% 1.40in /  35.6mm
20:00 53.0 °F /  11.7 °C 51.6 °F /  10.9 °C 29.72in /  1006.3hPa Calm   8.0mph /  12.9km/h 95% 1.40in /  35.6mm
20:05 53.0 °F /  11.7 °C 51.6 °F /  10.9 °C 29.73in /  1006.7hPa Calm   7.0mph /  11.3km/h 95% 1.40in /  35.6mm
20:10 53.0 °F /  11.7 °C 51.6 °F /  10.9 °C 29.73in /  1006.7hPa Calm   6.0mph /  9.7km/h 95% 1.40in /  35.6mm
20:15 53.1 °F /  11.7 °C 51.7 °F /  10.9 °C 29.73in /  1006.7hPa South 1.0mph /  1.6km/h 7.0mph /  11.3km/h 95% 1.40in /  35.6mm
20:20 53.1 °F /  11.7 °C 51.7 °F /  10.9 °C 29.73in /  1006.7hPa SSW 1.0mph /  1.6km/h 7.0mph /  11.3km/h 95% 1.40in /  35.6mm
20:25 53.1 °F /  11.7 °C 51.7 °F /  10.9 °C 29.73in /  1006.7hPa Calm   7.0mph /  11.3km/h 95% 1.40in /  35.6mm
20:30 53.1 °F /  11.7 °C 51.7 °F /  10.9 °C 29.73in /  1006.7hPa Calm   7.0mph /  11.3km/h 95% 1.40in /  35.6mm
20:35 53.2 °F /  11.8 °C 51.8 °F /  11 °C 29.72in /  1006.3hPa SSW 2.0mph /  3.2km/h 7.0mph /  11.3km/h 95% 1.40in /  35.6mm
20:40 53.2 °F /  11.8 °C 51.8 °F /  11 °C 29.73in /  1006.7hPa SSW 1.0mph /  1.6km/h 7.0mph /  11.3km/h 95% 1.40in /  35.6mm
20:50 53.2 °F /  11.8 °C 51.8 °F /  11 °C 29.73in /  1006.7hPa SW 2.0mph /  3.2km/h 8.0mph /  12.9km/h 95% 1.40in /  35.6mm
20:55 53.3 °F /  11.8 °C 51.9 °F /  11.1 °C 29.74in /  1007hPa Calm   8.0mph /  12.9km/h 95% 1.40in /  35.6mm
21:05 53.3 °F /  11.8 °C 51.9 °F /  11.1 °C 29.74in /  1007hPa Calm   7.0mph /  11.3km/h 95% 1.40in /  35.6mm
21:10 53.3 °F /  11.8 °C 51.9 °F /  11.1 °C 29.74in /  1007hPa Calm   7.0mph /  11.3km/h 95% 1.40in /  35.6mm
21:15 53.3 °F /  11.8 °C 52.2 °F /  11.2 °C 29.74in /  1007hPa SSW 2.0mph /  3.2km/h 10.0mph /  16.1km/h 96% 1.40in /  35.6mm
21:20 53.4 °F /  11.9 °C 52.3 °F /  11.3 °C 29.74in /  1007hPa SSW 1.0mph /  1.6km/h 10.0mph /  16.1km/h 96% 1.40in /  35.6mm
21:25 53.4 °F /  11.9 °C 52.3 °F /  11.3 °C 29.74in /  1007hPa SSW 2.0mph /  3.2km/h 9.0mph /  14.5km/h 96% 1.40in /  35.6mm
21:30 53.5 °F /  11.9 °C 52.4 °F /  11.3 °C 29.74in /  1007hPa SSW 2.0mph /  3.2km/h 8.0mph /  12.9km/h 96% 1.40in /  35.6mm
21:35 53.5 °F /  11.9 °C 52.4 °F /  11.3 °C 29.74in /  1007hPa SSW 1.0mph /  1.6km/h 8.0mph /  12.9km/h 96% 1.40in /  35.6mm
21:45 53.5 °F /  11.9 °C 52.4 °F /  11.3 °C 29.74in /  1007hPa Calm   8.0mph /  12.9km/h 96% 1.40in /  35.6mm
21:50 53.5 °F /  11.9 °C 52.4 °F /  11.3 °C 29.73in /  1006.7hPa SSW 1.0mph /  1.6km/h 8.0mph /  12.9km/h 96% 1.40in /  35.6mm
21:55 53.6 °F /  12 °C 52.5 °F /  11.4 °C 29.73in /  1006.7hPa SSW 2.0mph /  3.2km/h 7.0mph /  11.3km/h 96% 1.40in /  35.6mm
22:05 53.6 °F /  12 °C 52.5 °F /  11.4 °C 29.73in /  1006.7hPa SSW 1.0mph /  1.6km/h 7.0mph /  11.3km/h 96% 1.40in /  35.6mm
22:10 53.7 °F /  12.1 °C 52.6 °F /  11.4 °C 29.73in /  1006.7hPa SSW 2.0mph /  3.2km/h 7.0mph /  11.3km/h 96% 1.40in /  35.6mm
22:15 53.8 °F /  12.1 °C 52.7 °F /  11.5 °C 29.73in /  1006.7hPa Calm   7.0mph /  11.3km/h 96% 1.40in /  35.6mm
22:25 53.9 °F /  12.2 °C 52.8 °F /  11.6 °C 29.73in /  1006.7hPa Calm   6.0mph /  9.7km/h 96% 1.40in /  35.6mm
22:30 53.9 °F /  12.2 °C 52.8 °F /  11.6 °C 29.73in /  1006.7hPa SSW 1.0mph /  1.6km/h 7.0mph /  11.3km/h 96% 1.40in /  35.6mm
22:35 54.0 °F /  12.2 °C 52.9 °F /  11.6 °C 29.73in /  1006.7hPa SSW 2.0mph /  3.2km/h 8.0mph /  12.9km/h 96% 1.40in /  35.6mm
22:40 54.0 °F /  12.2 °C 52.9 °F /  11.6 °C 29.73in /  1006.7hPa SW 1.0mph /  1.6km/h 8.0mph /  12.9km/h 96% 1.40in /  35.6mm
22:50 54.1 °F /  12.3 °C 53.0 °F /  11.7 °C 29.73in /  1006.7hPa Calm   5.0mph /  8km/h 96% 1.40in /  35.6mm
22:55 54.1 °F /  12.3 °C 53.0 °F /  11.7 °C 29.73in /  1006.7hPa SW 1.0mph /  1.6km/h 7.0mph /  11.3km/h 96% 1.40in /  35.6mm
23:05 54.2 °F /  12.3 °C 53.1 °F /  11.7 °C 29.74in /  1007hPa SW 3.0mph /  4.8km/h 7.0mph /  11.3km/h 96% 1.40in /  35.6mm
23:10 54.3 °F /  12.4 °C 53.2 °F /  11.8 °C 29.73in /  1006.7hPa SSW 1.0mph /  1.6km/h 8.0mph /  12.9km/h 96% 1.40in /  35.6mm
23:20 54.2 °F /  12.3 °C 53.1 °F /  11.7 °C 29.72in /  1006.3hPa Calm   6.0mph /  9.7km/h 96% 1.40in /  35.6mm
23:25 54.2 °F /  12.3 °C 53.1 °F /  11.7 °C 29.73in /  1006.7hPa SSW 1.0mph /  1.6km/h 6.0mph /  9.7km/h 96% 1.40in /  35.6mm
23:30 54.2 °F /  12.3 °C 53.1 °F /  11.7 °C 29.73in /  1006.7hPa Calm   6.0mph /  9.7km/h 96% 1.40in /  35.6mm
23:35 54.2 °F /  12.3 °C 53.1 °F /  11.7 °C 29.73in /  1006.7hPa Calm   7.0mph /  11.3km/h 96% 1.40in /  35.6mm
23:40 54.2 °F /  12.3 °C 53.1 °F /  11.7 °C 29.72in /  1006.3hPa SSW 1.0mph /  1.6km/h 7.0mph /  11.3km/h 96% 1.40in /  35.6mm
23:45 54.3 °F /  12.4 °C 53.2 °F /  11.8 °C 29.72in /  1006.3hPa SW 1.0mph /  1.6km/h 7.0mph /  11.3km/h 96% 1.40in /  35.6mm
23:55 54.3 °F /  12.4 °C 53.2 °F /  11.8 °C 29.73in /  1006.7hPa Calm   7.0mph /  11.3km/h 96% 1.40in /  35.6mm
Westford Weather
Compliments of Weather Underground

 
 
Current Radar Loop:

Copyright © WestfordWeather.net 2007-2014. All rights reserved.